Time;durP1;ratioP1;P1;durP2;ratioP2;P2;SDS_P1;SDS_P2;PMS_P1;PMS_P2;Temp;Humidity;BMP_temperature;BMP_pressure;BME280_temperature;BME280_humidity;BME280_pressure;Samples;Min_cycle;Max_cycle;Signal;HPM_P1;HPM_P2
2022/04/17 00:00:20;;;;;;;7.70;6.93;;;;;;;;;;5093463;28;20436;-79
2022/04/17 00:02:47;;;;;;;7.77;7.00;;;;;;;;;;5092945;28;20448;-81
2022/04/17 00:05:14;;;;;;;5.90;5.33;;;;;;;;;;5098481;28;20473;-82
2022/04/17 00:07:41;;;;;;;7.00;6.33;;;;;;;;;;5103540;28;20827;-79
2022/04/17 00:10:09;;;;;;;6.40;5.87;;;;;;;;;;5092928;28;20459;-79
2022/04/17 00:12:39;;;;;;;6.10;5.50;;;;;;;;;;5093457;28;20439;-79
2022/04/17 00:15:07;;;;;;;5.97;5.37;;;;;;;;;;5094961;28;20506;-80
2022/04/17 00:17:37;;;;;;;4.63;4.27;;;;;;;;;;5094584;28;21039;-79
2022/04/17 00:20:04;;;;;;;5.50;5.00;;;;;;;;;;5095015;28;20487;-79
2022/04/17 00:22:32;;;;;;;6.50;5.43;;;;;;;;;;5096056;28;20813;-79
2022/04/17 00:25:01;;;;;;;6.50;4.63;;;;;;;;;;5095142;28;20519;-80
2022/04/17 00:27:28;;;;;;;5.43;4.93;;;;;;;;;;5094885;28;20450;-82
2022/04/17 00:29:55;;;;;;;5.33;4.93;;;;;;;;;;5095531;28;20911;-79
2022/04/17 00:32:22;;;;;;;4.90;4.43;;;;;;;;;;5095338;28;20440;-79
2022/04/17 00:34:51;;;;;;;5.03;4.63;;;;;;;;;;5096773;28;20834;-79
2022/04/17 00:37:18;;;;;;;5.47;4.97;;;;;;;;;;5096770;28;20474;-80
2022/04/17 00:39:45;;;;;;;4.90;4.50;;;;;;;;;;5097128;28;20451;-82
2022/04/17 00:42:12;;;;;;;4.97;4.57;;;;;;;;;;5099153;28;20457;-82
2022/04/17 00:44:39;;;;;;;4.93;4.57;;;;;;;;;;5098928;28;20464;-81
2022/04/17 00:47:08;;;;;;;5.60;5.13;;;;;;;;;;5099046;28;20931;-80
2022/04/17 00:49:35;;;;;;;5.37;4.87;;;;;;;;;;5099335;28;20485;-81
2022/04/17 00:52:04;;;;;;;4.60;4.30;;;;;;;;;;5095750;28;21032;-79
2022/04/17 00:54:31;;;;;;;5.03;4.53;;;;;;;;;;5095434;28;20451;-79
2022/04/17 00:56:59;;;;;;;4.77;4.47;;;;;;;;;;5093019;28;20476;-78
2022/04/17 00:59:27;;;;;;;4.90;4.50;;;;;;;;;;5091263;28;20446;-79
2022/04/17 01:01:54;;;;;;;4.67;4.33;;;;;;;;;;5091498;28;20456;-79
2022/04/17 01:04:21;;;;;;;5.20;4.80;;;;;;;;;;5091000;28;20927;-78
2022/04/17 01:06:48;;;;;;;5.23;4.30;;;;;;;;;;5090838;28;21069;-78
2022/04/17 01:09:17;;;;;;;4.30;3.90;;;;;;;;;;5091042;28;20460;-79
2022/04/17 01:11:45;;;;;;;4.00;3.70;;;;;;;;;;5092526;28;20440;-79
2022/04/17 01:14:12;;;;;;;4.67;4.27;;;;;;;;;;5094856;28;20451;-80
2022/04/17 01:16:39;;;;;;;5.33;4.20;;;;;;;;;;5094986;28;20536;-80
2022/04/17 01:19:11;;;;;;;4.30;3.90;;;;;;;;;;5095462;28;20444;-80
2022/04/17 01:21:40;;;;;;;4.27;3.97;;;;;;;;;;5094754;28;20970;-79
2022/04/17 01:26:57;;;;;;;4.70;4.40;;;;;;;;;;5103116;28;20419;-79
2022/04/17 01:29:24;;;;;;;4.47;4.17;;;;;;;;;;5102521;28;20444;-79
2022/04/17 01:31:51;;;;;;;3.90;3.70;;;;;;;;;;5102185;28;20441;-79
2022/04/17 01:34:18;;;;;;;4.40;4.10;;;;;;;;;;5104493;28;20432;-80
2022/04/17 01:36:47;;;;;;;4.83;4.43;;;;;;;;;;5103821;28;20473;-80
2022/04/17 01:39:15;;;;;;;4.50;4.20;;;;;;;;;;5102275;28;20558;-81
2022/04/17 01:41:42;;;;;;;4.80;4.40;;;;;;;;;;5106702;28;20455;-81
2022/04/17 01:44:10;;;;;;;5.07;4.20;;;;;;;;;;5115071;28;20450;-81
2022/04/17 01:46:37;;;;;;;4.53;4.13;;;;;;;;;;5112539;28;20470;-81
2022/04/17 01:49:04;;;;;;;5.07;4.67;;;;;;;;;;5096058;28;21117;-79
2022/04/17 01:51:37;;;;;;;4.73;4.33;;;;;;;;;;5097613;28;20576;-80
2022/04/17 01:54:06;;;;;;;4.53;4.13;;;;;;;;;;5097278;28;20994;-79
2022/04/17 01:56:33;;;;;;;4.23;4.03;;;;;;;;;;5094354;28;20508;-79
2022/04/17 01:59:00;;;;;;;4.60;4.30;;;;;;;;;;5095030;28;20445;-78
2022/04/17 02:01:27;;;;;;;3.73;3.53;;;;;;;;;;5095933;28;20548;-81
2022/04/17 02:03:54;;;;;;;4.17;3.93;;;;;;;;;;5094154;28;20457;-79
2022/04/17 02:06:21;;;;;;;4.87;4.40;;;;;;;;;;5094547;28;20468;-79
2022/04/17 02:08:51;;;;;;;5.27;4.77;;;;;;;;;;5094535;28;20457;-79
2022/04/17 02:11:19;;;;;;;5.10;4.60;;;;;;;;;;5094106;28;20449;-78
2022/04/17 02:13:46;;;;;;;5.27;4.87;;;;;;;;;;5094001;28;20543;-80
2022/04/17 02:16:13;;;;;;;4.90;4.50;;;;;;;;;;5095491;28;20466;-80
2022/04/17 02:18:40;;;;;;;5.30;4.90;;;;;;;;;;5094471;28;20489;-79
2022/04/17 02:21:08;;;;;;;5.50;5.10;;;;;;;;;;5094322;28;20455;-81
2022/04/17 02:23:35;;;;;;;5.33;4.90;;;;;;;;;;5093719;28;20455;-80
2022/04/17 02:26:02;;;;;;;5.20;4.73;;;;;;;;;;5093861;28;20495;-79
2022/04/17 02:28:34;;;;;;;7.00;5.20;;;;;;;;;;5094173;28;20437;-79
2022/04/17 02:31:02;;;;;;;5.30;4.90;;;;;;;;;;5094835;28;20444;-79
2022/04/17 02:33:29;;;;;;;4.50;4.10;;;;;;;;;;5094474;28;20489;-78
2022/04/17 02:35:56;;;;;;;5.73;5.20;;;;;;;;;;5093661;28;20497;-78
2022/04/17 02:38:23;;;;;;;5.00;4.70;;;;;;;;;;5093025;28;20498;-79
2022/04/17 02:40:50;;;;;;;5.30;4.90;;;;;;;;;;5094296;28;20449;-81
2022/04/17 02:43:17;;;;;;;5.63;4.67;;;;;;;;;;5093672;28;20458;-79
2022/04/17 02:45:45;;;;;;;5.17;4.70;;;;;;;;;;5092909;28;20472;-79
2022/04/17 02:48:12;;;;;;;5.50;5.00;;;;;;;;;;5093955;28;20512;-80
2022/04/17 02:50:40;;;;;;;5.60;5.20;;;;;;;;;;5093646;28;20428;-78
2022/04/17 02:53:07;;;;;;;5.10;4.70;;;;;;;;;;5092981;28;20849;-80
2022/04/17 02:55:35;;;;;;;5.10;4.60;;;;;;;;;;5097346;28;20590;-79
2022/04/17 02:58:02;;;;;;;5.83;5.33;;;;;;;;;;5103446;28;20513;-80
2022/04/17 03:00:31;;;;;;;5.00;4.70;;;;;;;;;;5103285;28;20455;-79
2022/04/17 03:05:44;;;;;;;4.80;4.40;;;;;;;;;;5097641;28;20444;-79
2022/04/17 03:08:12;;;;;;;5.43;5.03;;;;;;;;;;5092400;28;20845;-78
2022/04/17 03:10:40;;;;;;;5.70;5.23;;;;;;;;;;5093107;28;20934;-79
2022/04/17 03:13:08;;;;;;;5.60;5.20;;;;;;;;;;5092381;28;20480;-79
2022/04/17 03:15:37;;;;;;;5.43;4.80;;;;;;;;;;5092606;28;20474;-79
2022/04/17 03:18:06;;;;;;;4.37;4.10;;;;;;;;;;5092726;28;20527;-80
2022/04/17 03:20:33;;;;;;;4.53;4.23;;;;;;;;;;5094447;28;20444;-81
2022/04/17 03:23:00;;;;;;;5.00;4.67;;;;;;;;;;5106338;28;20431;-82
2022/04/17 03:25:27;;;;;;;5.43;4.70;;;;;;;;;;5117207;28;20457;-81
2022/04/17 03:27:54;;;;;;;5.60;5.20;;;;;;;;;;5117368;28;20439;-82
2022/04/17 03:30:21;;;;;;;4.77;4.47;;;;;;;;;;5116957;28;20428;-83
2022/04/17 03:32:49;;;;;;;5.90;5.30;;;;;;;;;;5116386;28;20428;-82
2022/04/17 03:35:18;;;;;;;5.27;4.90;;;;;;;;;;5114186;28;20737;-79
2022/04/17 03:37:46;;;;;;;5.10;4.80;;;;;;;;;;5113252;28;20476;-80
2022/04/17 03:40:13;;;;;;;5.20;4.80;;;;;;;;;;5106622;28;20470;-79
2022/04/17 03:42:41;;;;;;;5.30;4.90;;;;;;;;;;5098041;28;20517;-79
2022/04/17 03:45:11;;;;;;;5.10;4.73;;;;;;;;;;5095560;28;20876;-79
2022/04/17 03:47:38;;;;;;;4.73;4.43;;;;;;;;;;5092082;28;20590;-79
2022/04/17 03:50:06;;;;;;;5.07;4.70;;;;;;;;;;5093219;28;20446;-78
2022/04/17 03:52:40;;;;;;;5.43;5.07;;;;;;;;;;5092273;28;20432;-78
2022/04/17 03:55:07;;;;;;;6.30;5.17;;;;;;;;;;5092736;28;20467;-78
2022/04/17 03:57:35;;;;;;;5.60;5.10;;;;;;;;;;5092255;28;20475;-78
2022/04/17 04:00:02;;;;;;;5.47;4.97;;;;;;;;;;5100593;28;20440;-80
2022/04/17 04:02:30;;;;;;;5.73;5.20;;;;;;;;;;5111483;28;20550;-81
2022/04/17 04:04:57;;;;;;;4.87;4.57;;;;;;;;;;5116603;28;20454;-82
2022/04/17 04:07:25;;;;;;;7.60;5.77;;;;;;;;;;5116527;28;20432;-81
2022/04/17 04:09:53;;;;;;;5.83;5.33;;;;;;;;;;5116859;28;20438;-81
2022/04/17 04:12:20;;;;;;;6.07;5.50;;;;;;;;;;5116646;28;20448;-82
2022/04/17 04:14:48;;;;;;;5.57;5.07;;;;;;;;;;5116602;28;20453;-82
2022/04/17 04:17:15;;;;;;;6.00;5.50;;;;;;;;;;5116435;28;20482;-82
2022/04/17 04:19:42;;;;;;;5.17;4.87;;;;;;;;;;5115951;28;20436;-80
2022/04/17 04:22:10;;;;;;;5.23;4.80;;;;;;;;;;5115416;28;20514;-80
2022/04/17 04:24:37;;;;;;;5.53;5.10;;;;;;;;;;5096706;28;20534;-78
2022/04/17 04:29:50;;;;;;;5.40;5.00;;;;;;;;;;5091832;28;20501;-79
2022/04/17 04:32:20;;;;;;;5.77;5.37;;;;;;;;;;5091981;28;20439;-78
2022/04/17 04:34:47;;;;;;;6.00;5.60;;;;;;;;;;5092862;28;20960;-79
2022/04/17 04:37:14;;;;;;;5.60;5.30;;;;;;;;;;5092867;28;20450;-79
2022/04/17 04:39:41;;;;;;;5.30;4.90;;;;;;;;;;5093491;28;20443;-78
2022/04/17 04:42:09;;;;;;;6.33;5.30;;;;;;;;;;5091792;28;20443;-79
2022/04/17 04:44:37;;;;;;;5.40;5.00;;;;;;;;;;5091515;28;20443;-79
2022/04/17 04:47:03;;;;;;;5.97;5.47;;;;;;;;;;5093070;28;20432;-78
2022/04/17 04:49:30;;;;;;;7.13;5.97;;;;;;;;;;5095619;28;20514;-78
2022/04/17 04:51:57;;;;;;;5.73;5.23;;;;;;;;;;5097805;28;20790;-78
2022/04/17 04:54:24;;;;;;;5.90;5.40;;;;;;;;;;5098890;28;20530;-79
2022/04/17 04:56:52;;;;;;;6.10;5.50;;;;;;;;;;5099544;28;20946;-77
2022/04/17 04:59:21;;;;;;;6.03;5.43;;;;;;;;;;5099028;28;20483;-80
2022/04/17 05:01:48;;;;;;;5.70;5.20;;;;;;;;;;5098872;28;20499;-79
2022/04/17 05:04:16;;;;;;;6.77;6.17;;;;;;;;;;5098628;28;20527;-79
2022/04/17 05:06:43;;;;;;;6.67;6.17;;;;;;;;;;5096669;28;20543;-78
2022/04/17 05:09:10;;;;;;;6.37;5.33;;;;;;;;;;5098204;28;20451;-80
2022/04/17 05:11:38;;;;;;;6.27;5.83;;;;;;;;;;5097947;28;20443;-77
2022/04/17 05:14:06;;;;;;;6.67;6.17;;;;;;;;;;5098525;28;20447;-79
2022/04/17 05:16:35;;;;;;;6.40;5.90;;;;;;;;;;5099040;28;20531;-78
2022/04/17 05:19:21;;;;;;;5.70;5.40;;;;;;;;;;5100682;28;20471;-78
2022/04/17 05:21:48;;;;;;;5.57;5.10;;;;;;;;;;5098217;28;20439;-79
2022/04/17 05:24:16;;;;;;;6.27;5.67;;;;;;;;;;5100872;28;20789;-78
2022/04/17 05:26:43;;;;;;;5.97;5.53;;;;;;;;;;5102131;28;20463;-80
2022/04/17 05:29:10;;;;;;;6.90;6.30;;;;;;;;;;5100963;28;20440;-81
2022/04/17 05:31:39;;;;;;;5.80;5.40;;;;;;;;;;5098721;28;20439;-80
2022/04/17 05:34:06;;;;;;;5.90;5.50;;;;;;;;;;5097226;28;20431;-81
2022/04/17 05:36:33;;;;;;;6.40;5.80;;;;;;;;;;5097533;28;20463;-78
2022/04/17 05:39:00;;;;;;;5.77;5.37;;;;;;;;;;5096913;28;20478;-79
2022/04/17 05:41:27;;;;;;;6.73;6.13;;;;;;;;;;5096961;28;20448;-79
2022/04/17 05:43:55;;;;;;;7.10;5.93;;;;;;;;;;5097073;28;20497;-80
2022/04/17 05:46:22;;;;;;;6.10;5.60;;;;;;;;;;5097645;28;20464;-79
2022/04/17 05:48:50;;;;;;;5.67;5.27;;;;;;;;;;5097849;28;20818;-80
2022/04/17 05:51:18;;;;;;;5.80;5.40;;;;;;;;;;5099114;28;20455;-79
2022/04/17 05:53:45;;;;;;;6.37;5.87;;;;;;;;;;5095950;28;20440;-79
2022/04/17 05:56:12;;;;;;;6.00;5.50;;;;;;;;;;5095015;28;20470;-79
2022/04/17 05:58:39;;;;;;;6.23;5.73;;;;;;;;;;5093742;28;20470;-80
2022/04/17 06:01:06;;;;;;;6.27;5.80;;;;;;;;;;5095127;28;20449;-79
2022/04/17 06:03:33;;;;;;;5.63;5.13;;;;;;;;;;5094868;28;20526;-82
2022/04/17 06:06:02;;;;;;;5.27;4.93;;;;;;;;;;5094641;28;20482;-78
2022/04/17 06:08:30;;;;;;;6.10;5.40;;;;;;;;;;5095383;28;20614;-80
2022/04/17 06:10:57;;;;;;;5.93;5.43;;;;;;;;;;5094932;28;20455;-78
2022/04/17 06:13:24;;;;;;;5.57;5.13;;;;;;;;;;5093829;28;20439;-79
2022/04/17 06:15:51;;;;;;;6.40;5.80;;;;;;;;;;5095268;28;20465;-80
2022/04/17 06:18:18;;;;;;;5.37;5.07;;;;;;;;;;5094659;28;20475;-80
2022/04/17 06:20:45;;;;;;;5.83;5.33;;;;;;;;;;5094681;28;20447;-78
2022/04/17 06:23:14;;;;;;;5.57;5.17;;;;;;;;;;5094800;28;20820;-79
2022/04/17 06:25:41;;;;;;;4.93;4.60;;;;;;;;;;5095115;28;20460;-80
2022/04/17 06:28:08;;;;;;;5.10;4.70;;;;;;;;;;5096655;28;20437;-80
2022/04/17 06:30:35;;;;;;;5.03;4.63;;;;;;;;;;5096465;28;20473;-79
2022/04/17 06:33:02;;;;;;;5.40;5.00;;;;;;;;;;5095790;28;20439;-80
2022/04/17 06:35:30;;;;;;;6.07;5.00;;;;;;;;;;5095140;28;20453;-80
2022/04/17 06:37:58;;;;;;;6.10;4.97;;;;;;;;;;5095121;28;20468;-80
2022/04/17 06:40:28;;;;;;;4.93;4.63;;;;;;;;;;5094828;28;20448;-78
2022/04/17 06:42:56;;;;;;;4.30;4.10;;;;;;;;;;5094126;28;20472;-80
2022/04/17 06:45:23;;;;;;;4.90;4.60;;;;;;;;;;5094171;28;20469;-78
2022/04/17 06:47:50;;;;;;;5.20;4.90;;;;;;;;;;5093819;28;20450;-79
2022/04/17 06:50:18;;;;;;;5.30;4.90;;;;;;;;;;5093504;28;20467;-79
2022/04/17 06:52:45;;;;;;;4.80;4.40;;;;;;;;;;5093331;28;20935;-79
2022/04/17 06:55:13;;;;;;;4.30;4.10;;;;;;;;;;5094169;28;20473;-81
2022/04/17 06:57:46;;;;;;;5.23;4.73;;;;;;;;;;5093333;28;20438;-81
2022/04/17 07:00:13;;;;;;;5.10;4.57;;;;;;;;;;5093540;28;20761;-80
2022/04/17 07:02:41;;;;;;;4.67;4.33;;;;;;;;;;5094058;28;20432;-81
2022/04/17 07:05:09;;;;;;;5.40;4.60;;;;;;;;;;5092947;28;20554;-79
2022/04/17 07:07:36;;;;;;;4.23;3.93;;;;;;;;;;5092936;28;20440;-80
2022/04/17 07:10:04;;;;;;;4.43;4.13;;;;;;;;;;5094490;28;20971;-80
2022/04/17 07:12:31;;;;;;;5.00;4.63;;;;;;;;;;5094083;28;20440;-79
2022/04/17 07:15:00;;;;;;;5.20;4.70;;;;;;;;;;5095725;28;20826;-79
2022/04/17 07:17:34;;;;;;;4.33;4.03;;;;;;;;;;5094882;28;20449;-79
2022/04/17 07:20:01;;;;;;;4.97;4.67;;;;;;;;;;5092801;28;20563;-79
2022/04/17 07:22:28;;;;;;;5.27;4.20;;;;;;;;;;5093633;28;20445;-79
2022/04/17 07:24:57;;;;;;;3.93;3.70;;;;;;;;;;5093384;28;20463;-80
2022/04/17 07:27:25;;;;;;;4.40;4.10;;;;;;;;;;5093958;28;20485;-80
2022/04/17 07:29:53;;;;;;;4.57;4.17;;;;;;;;;;5097447;28;20431;-79
2022/04/17 07:32:21;;;;;;;4.50;4.10;;;;;;;;;;5095842;28;20871;-79
2022/04/17 07:34:50;;;;;;;4.50;4.07;;;;;;;;;;5093695;28;20470;-79
2022/04/17 07:37:25;;;;;;;3.90;3.60;;;;;;;;;;5094235;28;20465;-80
2022/04/17 07:39:52;;;;;;;4.20;3.90;;;;;;;;;;5096758;28;20463;-80
2022/04/17 07:42:20;;;;;;;4.17;3.77;;;;;;;;;;5094401;28;20451;-79
2022/04/17 07:44:47;;;;;;;4.43;4.03;;;;;;;;;;5093832;28;21006;-80
2022/04/17 07:47:14;;;;;;;4.10;3.70;;;;;;;;;;5093966;28;20501;-79
2022/04/17 07:49:43;;;;;;;3.83;3.63;;;;;;;;;;5094118;28;20447;-79
2022/04/17 07:52:10;;;;;;;3.70;3.40;;;;;;;;;;5093745;28;20465;-80
2022/04/17 07:54:37;;;;;;;4.03;3.80;;;;;;;;;;5094324;28;20439;-79
2022/04/17 07:57:05;;;;;;;4.23;3.80;;;;;;;;;;5093564;28;20839;-79
2022/04/17 07:59:32;;;;;;;3.50;3.13;;;;;;;;;;5093689;28;20483;-80
2022/04/17 08:02:11;;;;;;;3.60;3.40;;;;;;;;;;5093708;28;20444;-80
2022/04/17 08:04:39;;;;;;;3.43;3.23;;;;;;;;;;5095208;28;20474;-80
2022/04/17 08:07:08;;;;;;;3.50;3.30;;;;;;;;;;5095728;28;20467;-80
2022/04/17 08:09:35;;;;;;;3.60;3.30;;;;;;;;;;5095424;28;20451;-80
2022/04/17 08:12:02;;;;;;;3.80;3.50;;;;;;;;;;5094991;28;20463;-79
2022/04/17 08:14:29;;;;;;;3.40;3.20;;;;;;;;;;5094138;28;20470;-80
2022/04/17 08:16:56;;;;;;;3.23;3.13;;;;;;;;;;5093691;28;20457;-79
2022/04/17 08:19:24;;;;;;;3.60;3.30;;;;;;;;;;5092164;28;20475;-81
2022/04/17 08:21:51;;;;;;;3.37;3.07;;;;;;;;;;5092291;28;20546;-80
2022/04/17 08:24:19;;;;;;;4.33;3.93;;;;;;;;;;5092510;28;20833;-79
2022/04/17 08:26:46;;;;;;;3.70;3.40;;;;;;;;;;5091977;28;20440;-80
2022/04/17 08:29:14;;;;;;;3.43;3.23;;;;;;;;;;5093488;28;20472;-81
2022/04/17 08:31:41;;;;;;;3.90;3.60;;;;;;;;;;5091984;28;20450;-79
2022/04/17 08:34:08;;;;;;;3.67;3.37;;;;;;;;;;5091277;28;20451;-81
2022/04/17 08:36:35;;;;;;;3.27;3.00;;;;;;;;;;5091515;28;20939;-79
2022/04/17 08:39:03;;;;;;;4.20;3.90;;;;;;;;;;5091259;28;20475;-79
2022/04/17 08:41:33;;;;;;;3.80;3.50;;;;;;;;;;5091929;28;20432;-79
2022/04/17 08:44:01;;;;;;;3.40;3.20;;;;;;;;;;5093116;28;20541;-81
2022/04/17 08:46:28;;;;;;;5.60;3.60;;;;;;;;;;5092792;28;20490;-79
2022/04/17 08:48:56;;;;;;;3.70;3.40;;;;;;;;;;5092736;28;20440;-81
2022/04/17 08:51:25;;;;;;;3.43;3.23;;;;;;;;;;5092125;28;20925;-79
2022/04/17 08:53:53;;;;;;;3.47;3.13;;;;;;;;;;5091852;28;20447;-79
2022/04/17 08:56:20;;;;;;;3.40;3.20;;;;;;;;;;5092630;28;20463;-81
2022/04/17 08:58:48;;;;;;;3.50;3.30;;;;;;;;;;5093864;28;20475;-81
2022/04/17 09:01:18;;;;;;;3.10;2.90;;;;;;;;;;5091906;28;20455;-80
2022/04/17 09:03:47;;;;;;;3.20;3.00;;;;;;;;;;5091968;28;20498;-80
2022/04/17 09:06:15;;;;;;;3.40;3.10;;;;;;;;;;5094510;28;20490;-79
2022/04/17 09:08:56;;;;;;;2.90;2.70;;;;;;;;;;5092629;28;20463;-80
2022/04/17 09:11:26;;;;;;;3.97;3.67;;;;;;;;;;5095687;28;20444;-80
2022/04/17 09:13:56;;;;;;;2.77;2.57;;;;;;;;;;5096032;28;20443;-79
2022/04/17 09:16:27;;;;;;;3.43;3.23;;;;;;;;;;5098636;28;20460;-79
2022/04/17 09:18:57;;;;;;;2.70;2.50;;;;;;;;;;5096303;28;20562;-82
2022/04/17 09:21:35;;;;;;;2.77;2.43;;;;;;;;;;5099674;28;20515;-81
2022/04/17 09:24:16;;;;;;;3.30;3.00;;;;;;;;;;5096730;28;20447;-82
2022/04/17 09:26:50;;;;;;;4.07;3.17;;;;;;;;;;5097955;28;20460;-81
2022/04/17 09:29:19;;;;;;;3.13;2.83;;;;;;;;;;5099823;28;20443;-80
2022/04/17 09:31:47;;;;;;;3.03;2.83;;;;;;;;;;5099670;28;20459;-80
2022/04/17 09:34:15;;;;;;;2.70;2.43;;;;;;;;;;5100809;28;20813;-81
2022/04/17 09:36:42;;;;;;;4.63;2.77;;;;;;;;;;5104329;28;20533;-80
2022/04/17 09:39:12;;;;;;;2.57;2.37;;;;;;;;;;5107433;28;20476;-82
2022/04/17 09:41:52;;;;;;;3.00;2.80;;;;;;;;;;5107892;28;20515;-82
2022/04/17 09:44:28;;;;;;;2.70;2.50;;;;;;;;;;5106620;28;20424;-80
2022/04/17 09:46:59;;;;;;;3.43;2.50;;;;;;;;;;5104719;28;20430;-83
2022/04/17 09:49:26;;;;;;;3.10;2.90;;;;;;;;;;5099363;28;20926;-80
2022/04/17 09:52:07;;;;;;;2.73;2.60;;;;;;;;;;5100975;28;20443;-80
2022/04/17 09:54:34;;;;;;;2.83;2.63;;;;;;;;;;5099145;28;20454;-79
2022/04/17 09:57:03;;;;;;;3.10;2.90;;;;;;;;;;5100840;28;20968;-80
2022/04/17 09:59:30;;;;;;;2.07;1.90;;;;;;;;;;5100715;28;20537;-81
2022/04/17 10:01:59;;;;;;;2.37;2.17;;;;;;;;;;5104102;28;20427;-82
2022/04/17 10:04:27;;;;;;;2.63;2.37;;;;;;;;;;5104863;28;20497;-81
2022/04/17 10:06:55;;;;;;;2.30;2.10;;;;;;;;;;5103532;28;20440;-80
2022/04/17 10:09:22;;;;;;;2.63;2.43;;;;;;;;;;5104543;28;20444;-79
2022/04/17 10:11:51;;;;;;;2.70;2.50;;;;;;;;;;5106272;28;20443;-80
2022/04/17 10:14:18;;;;;;;2.70;2.50;;;;;;;;;;5103801;28;20436;-80
2022/04/17 10:16:46;;;;;;;2.30;2.20;;;;;;;;;;5103141;28;20459;-80
2022/04/17 10:19:15;;;;;;;2.70;2.27;;;;;;;;;;5099664;28;20495;-81
2022/04/17 10:21:42;;;;;;;2.10;2.00;;;;;;;;;;5100119;28;20425;-81
2022/04/17 10:24:15;;;;;;;2.73;2.20;;;;;;;;;;5098644;28;20526;-80
2022/04/17 10:26:47;;;;;;;2.07;1.97;;;;;;;;;;5099638;28;20819;-81
2022/04/17 10:29:16;;;;;;;2.37;2.20;;;;;;;;;;5098286;28;20946;-80
2022/04/17 10:31:48;;;;;;;2.90;2.33;;;;;;;;;;5098276;28;20450;-79
2022/04/17 10:34:33;;;;;;;3.27;2.60;;;;;;;;;;5100484;28;20444;-82
2022/04/17 10:37:13;;;;;;;2.10;1.90;;;;;;;;;;5101281;28;20454;-79
2022/04/17 10:39:42;;;;;;;2.50;2.20;;;;;;;;;;5099059;28;20483;-81
2022/04/17 10:42:09;;;;;;;2.10;2.00;;;;;;;;;;5099433;28;20443;-79
2022/04/17 10:44:41;;;;;;;1.70;1.60;;;;;;;;;;5097150;28;20432;-79
2022/04/17 10:47:08;;;;;;;1.80;1.70;;;;;;;;;;5101372;28;20466;-80
2022/04/17 10:49:52;;;;;;;2.47;1.87;;;;;;;;;;5101701;28;20473;-80
2022/04/17 10:52:26;;;;;;;1.47;1.40;;;;;;;;;;5102386;28;20485;-80
2022/04/17 10:54:53;;;;;;;2.10;2.00;;;;;;;;;;5099040;28;20482;-80
2022/04/17 10:57:24;;;;;;;2.63;2.17;;;;;;;;;;5100235;28;20453;-81
2022/04/17 10:59:51;;;;;;;1.93;1.83;;;;;;;;;;5097446;28;20510;-80
2022/04/17 11:02:25;;;;;;;1.50;1.50;;;;;;;;;;5098575;28;20431;-81
2022/04/17 11:04:54;;;;;;;2.00;1.70;;;;;;;;;;5098606;28;20547;-80
2022/04/17 11:07:22;;;;;;;1.73;1.40;;;;;;;;;;5101080;28;20505;-81
2022/04/17 11:10:04;;;;;;;1.83;1.73;;;;;;;;;;5101301;28;20440;-81
2022/04/17 11:12:31;;;;;;;1.73;1.63;;;;;;;;;;5097712;28;20443;-80
2022/04/17 11:15:19;;;;;;;1.77;1.60;;;;;;;;;;5095261;28;20459;-79
2022/04/17 11:17:47;;;;;;;2.60;2.40;;;;;;;;;;5094006;28;20825;-80
2022/04/17 11:20:16;;;;;;;1.73;1.63;;;;;;;;;;5096439;28;20475;-80
2022/04/17 11:22:43;;;;;;;3.17;1.90;;;;;;;;;;5097679;28;20454;-80
2022/04/17 11:25:11;;;;;;;2.10;1.90;;;;;;;;;;5098126;28;20459;-80
2022/04/17 11:27:42;;;;;;;1.93;1.70;;;;;;;;;;5097371;28;20538;-81
2022/04/17 11:30:10;;;;;;;1.70;1.60;;;;;;;;;;5100010;28;20481;-80
2022/04/17 11:32:47;;;;;;;1.63;1.53;;;;;;;;;;5099565;28;20436;-80
2022/04/17 11:35:17;;;;;;;1.80;1.70;;;;;;;;;;5099807;28;20471;-82
2022/04/17 11:37:51;;;;;;;1.97;1.77;;;;;;;;;;5099062;28;20815;-81
2022/04/17 11:40:19;;;;;;;1.87;1.77;;;;;;;;;;5100150;28;20535;-81
2022/04/17 11:42:47;;;;;;;2.17;1.97;;;;;;;;;;5100489;28;20872;-80
2022/04/17 11:45:16;;;;;;;2.30;2.20;;;;;;;;;;5101187;28;20452;-81
2022/04/17 11:47:44;;;;;;;3.47;2.13;;;;;;;;;;5102679;28;20490;-79
2022/04/17 11:50:11;;;;;;;2.10;1.90;;;;;;;;;;5102174;28;20436;-80
2022/04/17 11:52:40;;;;;;;1.67;1.57;;;;;;;;;;5099934;28;20796;-82
2022/04/17 11:55:07;;;;;;;1.63;1.60;;;;;;;;;;5096508;28;20463;-79
2022/04/17 11:57:34;;;;;;;2.20;1.80;;;;;;;;;;5095892;28;20959;-79
2022/04/17 12:00:01;;;;;;;1.87;1.77;;;;;;;;;;5094411;28;20471;-79
2022/04/17 12:02:29;;;;;;;1.80;1.70;;;;;;;;;;5095879;28;20700;-81
2022/04/17 12:04:57;;;;;;;1.97;1.87;;;;;;;;;;5094621;28;20463;-79
2022/04/17 12:07:25;;;;;;;2.50;2.13;;;;;;;;;;5095148;28;20437;-79
2022/04/17 12:10:03;;;;;;;1.80;1.70;;;;;;;;;;5098693;28;20436;-79
2022/04/17 12:12:34;;;;;;;3.10;1.77;;;;;;;;;;5094381;28;20443;-82
2022/04/17 12:15:03;;;;;;;1.73;1.63;;;;;;;;;;5095472;28;20475;-80
2022/04/17 12:17:31;;;;;;;1.60;1.50;;;;;;;;;;5093970;28;20538;-78
2022/04/17 12:19:58;;;;;;;2.10;2.00;;;;;;;;;;5095259;28;20480;-79
2022/04/17 12:22:26;;;;;;;2.50;2.30;;;;;;;;;;5102761;28;20436;-80
2022/04/17 12:24:54;;;;;;;2.07;1.97;;;;;;;;;;5102556;28;20471;-80
2022/04/17 12:27:22;;;;;;;1.87;1.77;;;;;;;;;;5103280;28;20439;-80
2022/04/17 12:29:49;;;;;;;1.80;1.60;;;;;;;;;;5102481;28;20440;-80
2022/04/17 12:32:16;;;;;;;1.60;1.50;;;;;;;;;;5102495;28;20554;-79
2022/04/17 12:34:45;;;;;;;1.83;1.50;;;;;;;;;;5101282;28;20455;-80
2022/04/17 12:37:22;;;;;;;2.13;1.80;;;;;;;;;;5102591;28;20443;-82
2022/04/17 12:39:49;;;;;;;4.73;2.83;;;;;;;;;;5098966;28;20473;-80
2022/04/17 12:42:19;;;;;;;2.00;1.90;;;;;;;;;;5102709;28;20467;-81
2022/04/17 12:44:47;;;;;;;1.33;1.30;;;;;;;;;;5102006;28;20450;-79
2022/04/17 12:47:14;;;;;;;1.87;1.77;;;;;;;;;;5097056;28;20825;-80
2022/04/17 12:49:42;;;;;;;2.47;2.03;;;;;;;;;;5095431;28;20512;-81
2022/04/17 12:52:09;;;;;;;2.43;2.20;;;;;;;;;;5096981;28;20444;-82
2022/04/17 12:54:37;;;;;;;1.53;1.53;;;;;;;;;;5100203;28;20432;-79
2022/04/17 12:57:05;;;;;;;2.23;1.70;;;;;;;;;;5099856;28;20440;-81
2022/04/17 12:59:43;;;;;;;2.80;1.90;;;;;;;;;;5101731;28;20436;-80
2022/04/17 13:02:13;;;;;;;1.50;1.40;;;;;;;;;;5102721;28;20450;-80
2022/04/17 13:04:44;;;;;;;1.80;1.70;;;;;;;;;;5098127;28;20791;-82
2022/04/17 13:07:13;;;;;;;4.10;1.80;;;;;;;;;;5100605;28;20432;-80
2022/04/17 13:09:49;;;;;;;1.53;1.43;;;;;;;;;;5103419;28;20455;-79
2022/04/17 13:12:30;;;;;;;4.40;1.50;;;;;;;;;;5103548;28;20471;-83
2022/04/17 13:14:58;;;;;;;1.47;1.40;;;;;;;;;;5099816;28;20463;-80
2022/04/17 13:17:26;;;;;;;1.43;1.33;;;;;;;;;;5100973;28;20450;-79
2022/04/17 13:19:53;;;;;;;1.70;1.60;;;;;;;;;;5101877;28;20444;-81
2022/04/17 13:22:20;;;;;;;1.77;1.67;;;;;;;;;;5100375;28;20490;-79
2022/04/17 13:24:47;;;;;;;1.60;1.50;;;;;;;;;;5098192;28;20471;-80
2022/04/17 13:27:14;;;;;;;1.63;1.53;;;;;;;;;;5096151;28;20814;-79
2022/04/17 13:29:44;;;;;;;3.03;1.50;;;;;;;;;;5097094;28;20455;-81
2022/04/17 13:32:12;;;;;;;1.73;1.50;;;;;;;;;;5099521;28;20464;-80
2022/04/17 13:34:42;;;;;;;2.13;1.93;;;;;;;;;;5102143;28;20447;-80
2022/04/17 13:39:54;;;;;;;1.60;1.60;;;;;;;;;;5102554;28;20942;-79
2022/04/17 13:42:21;;;;;;;2.57;1.90;;;;;;;;;;5099050;28;20436;-80
2022/04/17 13:44:48;;;;;;;2.03;1.70;;;;;;;;;;5096280;28;20975;-80
2022/04/17 13:47:16;;;;;;;1.77;1.67;;;;;;;;;;5096751;28;20455;-80
2022/04/17 13:49:43;;;;;;;3.10;1.30;;;;;;;;;;5095752;28;20978;-80
2022/04/17 13:52:11;;;;;;;1.97;1.87;;;;;;;;;;5095967;28;20438;-79
2022/04/17 13:54:38;;;;;;;2.43;1.87;;;;;;;;;;5095509;28;20435;-79
2022/04/17 13:57:05;;;;;;;2.27;2.17;;;;;;;;;;5096023;28;20693;-79
2022/04/17 13:59:32;;;;;;;1.90;1.80;;;;;;;;;;5095892;28;20432;-79
2022/04/17 14:01:59;;;;;;;3.53;1.93;;;;;;;;;;5095625;28;20475;-79
2022/04/17 14:04:28;;;;;;;1.40;1.30;;;;;;;;;;5095536;28;20443;-79
2022/04/17 14:06:56;;;;;;;2.40;1.67;;;;;;;;;;5095494;28;20472;-79
2022/04/17 14:09:23;;;;;;;1.17;1.17;;;;;;;;;;5095218;28;20447;-80
2022/04/17 14:11:50;;;;;;;1.60;1.50;;;;;;;;;;5095526;28;20447;-79
2022/04/17 14:14:17;;;;;;;3.07;1.40;;;;;;;;;;5094652;28;20476;-80
2022/04/17 14:16:45;;;;;;;2.00;1.70;;;;;;;;;;5094984;28;20467;-79
2022/04/17 14:19:12;;;;;;;1.83;1.60;;;;;;;;;;5095086;28;20461;-79
2022/04/17 14:21:40;;;;;;;1.73;1.63;;;;;;;;;;5094613;28;21029;-79
2022/04/17 14:24:07;;;;;;;1.70;1.60;;;;;;;;;;5093881;28;20450;-79
2022/04/17 14:26:34;;;;;;;2.07;1.87;;;;;;;;;;5094354;28;20460;-79
2022/04/17 14:29:01;;;;;;;1.93;1.77;;;;;;;;;;5095519;28;20927;-80
2022/04/17 14:31:28;;;;;;;1.63;1.53;;;;;;;;;;5098638;28;20443;-79
2022/04/17 14:33:56;;;;;;;2.23;2.10;;;;;;;;;;5100249;28;20515;-79
2022/04/17 14:36:23;;;;;;;1.33;1.33;;;;;;;;;;5096969;28;20939;-79
2022/04/17 14:38:51;;;;;;;1.90;1.80;;;;;;;;;;5095724;28;20451;-79
2022/04/17 14:41:18;;;;;;;1.57;1.47;;;;;;;;;;5097493;28;20471;-79
2022/04/17 14:43:45;;;;;;;1.50;1.40;;;;;;;;;;5102334;28;20470;-79
2022/04/17 14:46:12;;;;;;;1.87;1.60;;;;;;;;;;5100714;28;20471;-79
2022/04/17 14:48:39;;;;;;;1.60;1.50;;;;;;;;;;5099798;28;20450;-79
2022/04/17 14:51:06;;;;;;;3.50;1.93;;;;;;;;;;5099312;28;20448;-79
2022/04/17 14:53:34;;;;;;;2.37;2.17;;;;;;;;;;5099581;28;20428;-79
2022/04/17 14:56:03;;;;;;;1.70;1.60;;;;;;;;;;5098264;28;20456;-79
2022/04/17 14:58:30;;;;;;;1.87;1.50;;;;;;;;;;5100080;28;20455;-79
2022/04/17 15:00:57;;;;;;;1.60;1.50;;;;;;;;;;5100078;28;20476;-79